createdAt,value
2023-04-01T00:01:22.735Z,12.55
2023-04-01T00:03:28.633Z,12.54
2023-04-01T00:05:33.760Z,12.50
2023-04-01T00:07:38.846Z,12.46
2023-04-01T00:09:43.649Z,12.43
2023-04-01T00:11:48.430Z,12.45
2023-04-01T00:13:53.276Z,12.45
2023-04-01T00:16:00.120Z,12.43
2023-04-01T00:18:08.599Z,12.42
2023-04-01T00:20:15.494Z,12.42
2023-04-01T00:22:20.211Z,12.44
2023-04-01T00:24:25.024Z,12.46
2023-04-01T00:26:29.961Z,12.47
2023-04-01T00:28:35.010Z,12.48
2023-04-01T00:30:40.414Z,12.48
2023-04-01T00:32:45.343Z,12.43
2023-04-01T00:34:54.296Z,12.38
2023-04-01T00:36:59.096Z,12.39
2023-04-01T00:39:03.846Z,12.39
2023-04-01T00:41:09.559Z,12.38
2023-04-01T00:43:19.054Z,12.35
2023-04-01T00:45:32.429Z,12.28
2023-04-01T00:47:37.137Z,12.19
2023-04-01T00:49:44.503Z,12.21
2023-04-01T00:51:55.782Z,12.21
2023-04-01T00:54:04.959Z,12.22
2023-04-01T00:56:14.959Z,12.15
2023-04-01T00:58:22.516Z,12.15
2023-04-01T01:00:27.637Z,12.15
2023-04-01T01:02:32.747Z,12.14
2023-04-01T01:04:38.996Z,12.13
2023-04-01T01:06:55.223Z,12.12
2023-04-01T01:09:19.258Z,12.13
2023-04-01T01:11:37.076Z,12.08
2023-04-01T01:13:56.056Z,12.11
2023-04-01T01:16:04.652Z,12.10
2023-04-01T01:18:16.249Z,12.09
2023-04-01T01:20:51.098Z,12.06
2023-04-01T01:23:25.771Z,12.04
2023-04-01T01:25:43.012Z,12.04
2023-04-01T01:27:58.468Z,12.01
2023-04-01T01:30:23.788Z,11.99
2023-04-01T01:32:43.867Z,11.96
2023-04-01T01:34:57.761Z,11.92
2023-04-01T01:37:09.483Z,11.88
2023-04-01T01:39:17.482Z,11.90
2023-04-01T01:41:24.012Z,11.92
2023-04-01T01:43:33.748Z,11.90
2023-04-01T01:45:44.483Z,11.90
2023-04-01T01:47:50.445Z,11.90
2023-04-01T01:49:57.133Z,11.88
2023-04-01T01:52:02.278Z,11.88
2023-04-01T01:54:09.623Z,11.88
2023-04-01T01:56:15.356Z,11.88
2023-04-01T01:58:26.163Z,11.88
2023-04-01T02:00:32.015Z,11.86
2023-04-01T02:02:39.543Z,11.82
2023-04-01T02:04:48.431Z,11.79
2023-04-01T02:06:59.972Z,11.79
2023-04-01T02:09:07.886Z,11.78
2023-04-01T02:11:17.036Z,11.77
2023-04-01T02:13:31.131Z,11.78
2023-04-01T02:15:41.121Z,11.80
2023-04-01T02:17:48.470Z,11.77
2023-04-01T02:19:56.524Z,11.74
2023-04-01T02:22:06.508Z,11.74
2023-04-01T02:24:15.600Z,11.72
2023-04-01T02:26:24.861Z,11.69
2023-04-01T02:28:30.622Z,11.72
2023-04-01T02:30:38.784Z,11.70
2023-04-01T02:32:44.105Z,11.71
2023-04-01T02:34:49.670Z,11.72
2023-04-01T02:36:55.899Z,11.72
2023-04-01T02:39:04.128Z,11.72
2023-04-01T02:41:09.120Z,11.69
2023-04-01T02:43:17.432Z,11.69
2023-04-01T02:45:22.731Z,11.73
2023-04-01T02:47:27.698Z,11.74
2023-04-01T02:49:32.492Z,11.73
2023-04-01T02:51:37.474Z,11.70
2023-04-01T02:53:42.253Z,11.68
2023-04-01T02:55:47.161Z,11.67
2023-04-01T02:57:51.919Z,11.63
2023-04-01T02:59:59.260Z,11.60
2023-04-01T03:02:04.047Z,11.61
2023-04-01T03:04:09.209Z,11.61
2023-04-01T03:06:16.542Z,11.63
2023-04-01T03:08:21.456Z,11.62
2023-04-01T03:10:26.318Z,11.60
2023-04-01T03:12:31.140Z,11.59
2023-04-01T03:14:35.954Z,11.60
2023-04-01T03:16:43.402Z,11.61
2023-04-01T03:18:50.592Z,11.63
2023-04-01T03:20:56.246Z,11.63
2023-04-01T03:23:01.054Z,11.63
2023-04-01T03:25:06.529Z,11.62
2023-04-01T03:27:11.262Z,11.59
2023-04-01T03:29:17.006Z,11.57
2023-04-01T03:31:23.909Z,11.52
2023-04-01T03:33:35.232Z,11.48
2023-04-01T03:35:39.967Z,11.52
2023-04-01T03:37:44.804Z,11.49
2023-04-01T03:39:49.566Z,11.47
2023-04-01T03:41:54.429Z,11.46
2023-04-01T03:43:59.271Z,11.42
2023-04-01T03:46:04.278Z,11.42
2023-04-01T03:48:09.564Z,11.39
2023-04-01T03:50:17.202Z,11.38
2023-04-01T03:52:22.020Z,11.35
2023-04-01T03:54:27.023Z,11.34
2023-04-01T03:56:31.838Z,11.34
2023-04-01T03:58:36.654Z,11.33
2023-04-01T04:00:42.856Z,11.31
2023-04-01T04:02:48.784Z,11.31
2023-04-01T04:04:59.172Z,11.29
2023-04-01T04:07:09.060Z,11.28
2023-04-01T04:09:34.429Z,11.23
2023-04-01T04:11:39.508Z,11.23
2023-04-01T04:13:44.761Z,11.21
2023-04-01T04:15:49.943Z,11.18
2023-04-01T04:17:54.784Z,11.16
2023-04-01T04:20:00.154Z,11.15
2023-04-01T04:22:05.227Z,11.13
2023-04-01T04:24:13.297Z,11.10
2023-04-01T04:26:38.287Z,11.10
2023-04-01T04:28:43.574Z,11.06
2023-04-01T04:30:48.409Z,11.05
2023-04-01T04:32:53.235Z,11.03
2023-04-01T04:34:58.040Z,11.02
2023-04-01T04:37:02.933Z,11.02
2023-04-01T04:39:14.664Z,11.03
2023-04-01T04:41:23.419Z,11.05
2023-04-01T04:43:29.680Z,11.06
2023-04-01T04:45:35.674Z,11.01
2023-04-01T04:47:41.902Z,11.05
2023-04-01T04:49:46.812Z,11.03
2023-04-01T04:51:51.608Z,11.02
2023-04-01T04:53:58.655Z,11.03
2023-04-01T04:56:21.719Z,11.02
2023-04-01T04:58:38.229Z,11.02
2023-04-01T05:00:43.606Z,11.01
2023-04-01T05:02:56.969Z,10.98
2023-04-01T05:05:02.010Z,10.97
2023-04-01T05:07:07.100Z,10.96
2023-04-01T05:09:12.483Z,10.93
2023-04-01T05:11:23.066Z,10.91
2023-04-01T05:13:29.695Z,10.90
2023-04-01T05:15:35.341Z,10.90
2023-04-01T05:17:40.574Z,10.94
2023-04-01T05:19:45.529Z,10.96
2023-04-01T05:21:50.376Z,10.97
2023-04-01T05:23:55.230Z,10.98
2023-04-01T05:26:00.302Z,11.00
2023-04-01T05:28:08.566Z,11.05
2023-04-01T05:30:14.932Z,11.10
2023-04-01T05:32:32.304Z,11.10
2023-04-01T05:34:37.240Z,11.11
2023-04-01T05:36:42.878Z,11.15
2023-04-01T05:38:49.031Z,11.13
2023-04-01T05:41:02.681Z,11.15
2023-04-01T05:43:11.525Z,11.17
2023-04-01T05:45:16.966Z,11.18
2023-04-01T05:47:54.298Z,11.20
2023-04-01T05:49:59.623Z,11.24
2023-04-01T05:52:04.754Z,11.27
2023-04-01T05:54:12.652Z,11.30
2023-04-01T05:56:18.451Z,11.34
2023-04-01T05:58:29.752Z,11.38
2023-04-01T06:00:34.590Z,11.45
2023-04-01T06:02:40.298Z,11.48
2023-04-01T06:04:46.215Z,11.50
2023-04-01T06:06:52.613Z,11.54
2023-04-01T06:08:59.399Z,11.58
2023-04-01T06:11:17.475Z,11.61
2023-04-01T06:13:40.108Z,11.61
2023-04-01T06:15:52.588Z,11.65
2023-04-01T06:18:14.993Z,11.66
2023-04-01T06:20:29.239Z,11.69
2023-04-01T06:23:01.282Z,11.72
2023-04-01T06:25:29.761Z,11.77
2023-04-01T06:27:48.183Z,11.78
2023-04-01T06:30:04.801Z,11.80
2023-04-01T06:32:46.774Z,11.83
2023-04-01T06:35:07.772Z,11.88
2023-04-01T06:37:40.238Z,11.89
2023-04-01T06:40:08.758Z,11.88
2023-04-01T06:42:32.231Z,11.87
2023-04-01T06:44:52.946Z,11.90
2023-04-01T06:47:30.399Z,11.92
2023-04-01T06:50:03.433Z,11.94
2023-04-01T06:52:34.976Z,11.97
2023-04-01T06:55:25.768Z,11.97
2023-04-01T06:57:53.254Z,11.97
2023-04-01T07:00:01.237Z,12.02
2023-04-01T07:02:22.656Z,12.02
2023-04-01T07:04:35.274Z,12.03
2023-04-01T07:07:04.052Z,12.08
2023-04-01T07:09:20.534Z,12.10
2023-04-01T07:11:44.708Z,12.10
2023-04-01T07:14:22.460Z,12.11
2023-04-01T07:16:34.628Z,12.20
2023-04-01T07:18:46.125Z,12.30
2023-04-01T07:20:55.693Z,12.35
2023-04-01T07:23:04.653Z,12.44
2023-04-01T07:25:33.741Z,12.50
2023-04-01T07:28:17.654Z,12.58
2023-04-01T07:30:28.875Z,12.64
2023-04-01T07:32:44.929Z,12.66
2023-04-01T07:35:21.465Z,12.73
2023-04-01T07:37:34.901Z,12.80
2023-04-01T07:39:49.673Z,12.86
2023-04-01T07:42:25.753Z,12.94
2023-04-01T07:44:42.521Z,12.99
2023-04-01T07:47:03.567Z,13.03
2023-04-01T07:49:15.662Z,13.06
2023-04-01T07:51:28.838Z,13.05
2023-04-01T07:53:42.333Z,13.01
2023-04-01T07:55:55.061Z,12.98
2023-04-01T07:58:06.682Z,13.03
2023-04-01T08:00:22.875Z,13.08
2023-04-01T08:02:53.148Z,13.16
2023-04-01T08:05:08.446Z,13.22
2023-04-01T08:07:20.273Z,13.33
2023-04-01T08:09:53.494Z,13.34
2023-04-01T08:12:28.731Z,13.30
2023-04-01T08:15:04.178Z,13.31
2023-04-01T08:17:36.005Z,13.28
2023-04-01T08:19:53.222Z,13.19
2023-04-01T08:22:01.577Z,13.19
2023-04-01T08:24:21.488Z,13.22
2023-04-01T08:26:38.252Z,13.25
2023-04-01T08:28:48.425Z,13.27
2023-04-01T08:30:56.384Z,13.27
2023-04-01T08:33:09.609Z,13.26
2023-04-01T08:35:32.946Z,13.30
2023-04-01T08:37:43.965Z,13.28
2023-04-01T08:39:58.014Z,13.26
2023-04-01T08:42:29.296Z,13.26
2023-04-01T08:45:19.563Z,13.35
2023-04-01T08:47:52.332Z,13.49
2023-04-01T08:50:35.676Z,13.59
2023-04-01T08:53:02.649Z,13.68
2023-04-01T08:55:40.808Z,13.87
2023-04-01T08:58:04.141Z,13.99
2023-04-01T09:00:34.284Z,14.03
2023-04-01T09:03:38.269Z,14.03
2023-04-01T09:06:05.752Z,14.05
2023-04-01T09:08:32.456Z,14.06
2023-04-01T09:10:52.819Z,14.07
2023-04-01T09:14:05.690Z,14.05
2023-04-01T09:16:28.756Z,14.03
2023-04-01T09:19:14.401Z,14.00
2023-04-01T09:21:54.322Z,13.93
2023-04-01T09:24:29.579Z,13.91
2023-04-01T09:26:52.195Z,14.04
2023-04-01T09:29:09.883Z,14.20
2023-04-01T09:31:30.841Z,14.32
2023-04-01T09:34:40.441Z,14.46
2023-04-01T09:36:49.655Z,14.65
2023-04-01T09:39:01.149Z,14.78
2023-04-01T09:41:19.863Z,14.84
2023-04-01T09:44:08.240Z,14.86
2023-04-01T09:46:38.403Z,14.83
2023-04-01T09:49:21.577Z,14.83
2023-04-01T09:51:36.214Z,14.74
2023-04-01T09:53:57.678Z,14.65
2023-04-01T09:56:27.156Z,14.54
2023-04-01T09:58:58.893Z,14.50
2023-04-01T10:01:56.959Z,14.38
2023-04-01T10:04:28.024Z,14.28
2023-04-01T10:07:03.272Z,14.19
2023-04-01T10:09:41.082Z,14.11
2023-04-01T10:12:20.895Z,14.08
2023-04-01T10:14:39.292Z,14.06
2023-04-01T10:17:20.253Z,14.07
2023-04-01T10:19:43.366Z,14.09
2023-04-01T10:22:18.103Z,14.09
2023-04-01T10:24:57.588Z,14.05
2023-04-01T10:27:27.477Z,14.05
2023-04-01T10:30:47.436Z,14.05
2023-04-01T10:33:32.632Z,14.11
2023-04-01T10:36:17.172Z,14.20
2023-04-01T10:38:51.571Z,14.26
2023-04-01T10:41:35.024Z,14.27
2023-04-01T10:44:29.388Z,14.30
2023-04-01T10:47:06.076Z,14.31
2023-04-01T10:49:41.101Z,14.29
2023-04-01T10:52:20.349Z,14.24
2023-04-01T10:54:50.139Z,14.18
2023-04-01T10:57:39.953Z,14.16
2023-04-01T11:00:27.535Z,14.12
2023-04-01T11:03:32.543Z,14.08
2023-04-01T11:06:49.855Z,14.06
2023-04-01T11:09:44.255Z,14.02
2023-04-01T11:12:22.066Z,13.98
2023-04-01T11:14:53.707Z,14.00
2023-04-01T11:17:23.660Z,14.02
2023-04-01T11:20:11.367Z,14.05
2023-04-01T11:22:36.752Z,14.01
2023-04-01T11:25:04.493Z,13.95
2023-04-01T11:27:39.799Z,13.92
2023-04-01T11:30:00.341Z,13.89
2023-04-01T11:32:24.279Z,13.84
2023-04-01T11:34:46.911Z,13.81
2023-04-01T11:37:05.322Z,13.76
2023-04-01T11:39:24.971Z,13.70
2023-04-01T11:42:20.084Z,13.60
2023-04-01T11:45:05.466Z,13.59
2023-04-01T11:47:29.690Z,13.61
2023-04-01T11:49:47.806Z,13.65
2023-04-01T11:52:18.653Z,13.68
2023-04-01T11:54:55.517Z,13.69
2023-04-01T11:57:17.223Z,13.69
2023-04-01T11:59:45.278Z,13.58
2023-04-01T12:02:03.839Z,13.46
2023-04-01T12:04:36.504Z,13.36
2023-04-01T12:06:49.115Z,13.27
2023-04-01T12:09:05.191Z,13.22
2023-04-01T12:11:18.794Z,13.28
2023-04-01T12:13:36.369Z,13.31
2023-04-01T12:15:52.899Z,13.34
2023-04-01T12:18:06.138Z,13.30
2023-04-01T12:20:22.847Z,13.22
2023-04-01T12:22:39.207Z,13.19
2023-04-01T12:24:51.819Z,13.08
2023-04-01T12:27:09.800Z,13.01
2023-04-01T12:29:53.618Z,12.94
2023-04-01T12:32:08.273Z,12.88
2023-04-01T12:34:51.336Z,12.80
2023-04-01T12:37:08.207Z,12.77
2023-04-01T12:39:34.128Z,12.67
2023-04-01T12:41:47.547Z,12.61
2023-04-01T12:44:28.056Z,12.52
2023-04-01T12:46:53.276Z,12.51
2023-04-01T12:49:23.232Z,12.50
2023-04-01T12:51:49.608Z,12.47
2023-04-01T12:54:33.602Z,12.44
2023-04-01T12:56:54.134Z,12.39
2023-04-01T12:59:19.804Z,12.38
2023-04-01T13:01:42.236Z,12.39
2023-04-01T13:04:25.791Z,12.43
2023-04-01T13:06:50.212Z,12.40
2023-04-01T13:09:07.555Z,12.45
2023-04-01T13:11:25.085Z,12.50
2023-04-01T13:13:49.431Z,12.48
2023-04-01T13:15:58.771Z,12.44
2023-04-01T13:18:21.651Z,12.40
2023-04-01T13:20:39.771Z,12.34
2023-04-01T13:23:01.683Z,12.29
2023-04-01T13:25:17.986Z,12.30
2023-04-01T13:27:29.409Z,12.26
2023-04-01T13:29:39.382Z,12.22
2023-04-01T13:31:56.301Z,12.20
2023-04-01T13:34:20.897Z,12.19
2023-04-01T13:36:33.431Z,12.18
2023-04-01T13:39:00.014Z,12.12
2023-04-01T13:41:13.789Z,12.12
2023-04-01T13:43:25.820Z,12.12
2023-04-01T13:45:37.245Z,12.12
2023-04-01T13:48:08.851Z,12.10
2023-04-01T13:50:44.633Z,12.10
2023-04-01T13:53:12.988Z,12.09
2023-04-01T13:55:53.564Z,12.12
2023-04-01T13:58:21.507Z,12.14
2023-04-01T14:00:42.716Z,12.18
2023-04-01T14:03:00.198Z,12.18
2023-04-01T14:05:24.386Z,12.19
2023-04-01T14:07:54.059Z,12.20
2023-04-01T14:10:11.030Z,12.23
2023-04-01T14:12:28.399Z,12.26
2023-04-01T14:14:51.297Z,12.29
2023-04-01T14:17:19.622Z,12.26
2023-04-01T14:19:38.834Z,12.28
2023-04-01T14:21:51.863Z,12.31
2023-04-01T14:24:26.652Z,12.32
2023-04-01T14:26:47.965Z,12.35
2023-04-01T14:29:03.366Z,12.38
2023-04-01T14:31:38.555Z,12.37
2023-04-01T14:33:50.277Z,12.35
2023-04-01T14:36:19.967Z,12.34
2023-04-01T14:38:51.898Z,12.37
2023-04-01T14:41:07.188Z,12.41
2023-04-01T14:43:35.484Z,12.43
2023-04-01T14:46:09.675Z,12.47
2023-04-01T14:48:27.403Z,12.49
2023-04-01T14:50:34.786Z,12.51
2023-04-01T14:52:43.344Z,12.53
2023-04-01T14:54:50.597Z,12.54
2023-04-01T14:57:14.248Z,12.52
2023-04-01T14:59:31.523Z,12.53
2023-04-01T15:01:46.380Z,12.52
2023-04-01T15:04:01.912Z,12.51
2023-04-01T15:06:35.868Z,12.50
2023-04-01T15:08:45.734Z,12.40
2023-04-01T15:11:15.767Z,12.42
2023-04-01T15:13:39.807Z,12.42
2023-04-01T15:15:59.953Z,12.45
2023-04-01T15:18:13.321Z,12.48
2023-04-01T15:20:33.640Z,12.52
2023-04-01T15:22:55.070Z,12.54
2023-04-01T15:25:25.664Z,12.55
2023-04-01T15:27:44.663Z,12.56
2023-04-01T15:30:11.914Z,12.58
2023-04-01T15:32:23.152Z,12.61
2023-04-01T15:34:37.772Z,12.62
2023-04-01T15:36:48.947Z,12.61
2023-04-01T15:38:57.532Z,12.61
2023-04-01T15:41:11.058Z,12.63
2023-04-01T15:43:28.115Z,12.62
2023-04-01T15:45:50.338Z,12.61
2023-04-01T15:48:04.530Z,12.64
2023-04-01T15:50:39.938Z,12.66
2023-04-01T15:52:54.646Z,12.66
2023-04-01T15:55:43.004Z,12.67
2023-04-01T16:01:13.801Z,12.71
2023-04-01T16:03:28.508Z,12.73
2023-04-01T16:05:46.967Z,12.74
2023-04-01T16:08:08.237Z,12.72
2023-04-01T16:10:34.885Z,12.69
2023-04-01T16:12:57.111Z,12.69
2023-04-01T16:15:13.974Z,12.69
2023-04-01T16:17:35.309Z,12.69
2023-04-01T16:19:55.151Z,12.69
2023-04-01T16:22:07.954Z,12.66
2023-04-01T16:24:23.870Z,12.65
2023-04-01T16:26:36.983Z,12.63
2023-04-01T16:28:52.882Z,12.58
2023-04-01T16:31:03.596Z,12.56
2023-04-01T16:33:19.220Z,12.54
2023-04-01T16:35:43.589Z,12.50
2023-04-01T16:37:53.608Z,12.49
2023-04-01T16:40:17.332Z,12.48
2023-04-01T16:42:44.426Z,12.45
2023-04-01T16:44:57.762Z,12.42
2023-04-01T16:47:10.292Z,12.43
2023-04-01T16:49:32.981Z,12.43
2023-04-01T16:51:46.050Z,12.44
2023-04-01T16:53:53.568Z,12.47
2023-04-01T16:56:07.519Z,12.49
2023-04-01T16:58:14.320Z,12.52
2023-04-01T17:00:26.602Z,12.54
2023-04-01T17:02:35.530Z,12.55
2023-04-01T17:04:48.120Z,12.50
2023-04-01T17:07:01.957Z,12.48
2023-04-01T17:09:26.427Z,12.47
2023-04-01T17:11:37.664Z,12.48
2023-04-01T17:13:51.226Z,12.48
2023-04-01T17:16:05.662Z,12.50
2023-04-01T17:18:17.308Z,12.52
2023-04-01T17:20:37.943Z,12.54
2023-04-01T17:22:50.582Z,12.54
2023-04-01T17:25:06.752Z,12.55
2023-04-01T17:27:24.749Z,12.53
2023-04-01T17:29:37.043Z,12.55
2023-04-01T17:31:53.625Z,12.55
2023-04-01T17:34:25.094Z,12.56
2023-04-01T17:36:53.849Z,12.57
2023-04-01T17:39:09.648Z,12.57
2023-04-01T17:41:28.604Z,12.55
2023-04-01T17:43:46.371Z,12.51
2023-04-01T17:45:57.266Z,12.53
2023-04-01T17:48:12.229Z,12.54
2023-04-01T17:50:28.447Z,12.55
2023-04-01T17:52:46.194Z,12.55
2023-04-01T17:54:58.276Z,12.53
2023-04-01T17:57:29.001Z,12.53
2023-04-01T17:59:43.888Z,12.51
2023-04-01T18:01:59.602Z,12.55
2023-04-01T18:04:29.945Z,12.53
2023-04-01T18:06:40.702Z,12.54
2023-04-01T18:09:01.653Z,12.52
2023-04-01T18:11:18.260Z,12.55
2023-04-01T18:13:46.500Z,12.57
2023-04-01T18:16:03.202Z,12.55
2023-04-01T18:18:26.073Z,12.59
2023-04-01T18:20:46.038Z,12.58
2023-04-01T18:22:57.962Z,12.62
2023-04-01T18:25:17.320Z,12.61
2023-04-01T18:27:27.375Z,12.65
2023-04-01T18:29:40.597Z,12.65
2023-04-01T18:31:47.954Z,12.58
2023-04-01T18:34:00.899Z,12.61
2023-04-01T18:36:20.863Z,12.60
2023-04-01T18:38:33.581Z,12.63
2023-04-01T18:40:45.741Z,12.65
2023-04-01T18:43:01.760Z,12.65
2023-04-01T18:45:19.003Z,12.64
2023-04-01T18:47:31.557Z,12.68
2023-04-01T18:49:46.307Z,12.67
2023-04-01T18:51:58.570Z,12.69
2023-04-01T18:54:07.048Z,12.71
2023-04-01T18:56:17.258Z,12.73
2023-04-01T18:58:29.008Z,12.73
2023-04-01T19:00:44.331Z,12.73
2023-04-01T19:02:56.891Z,12.74
2023-04-01T19:05:09.223Z,12.75
2023-04-01T19:07:44.230Z,12.73
2023-04-01T19:09:51.601Z,12.77
2023-04-01T19:12:19.797Z,12.76
2023-04-01T19:14:33.386Z,12.78
2023-04-01T19:16:49.922Z,12.79
2023-04-01T19:19:19.073Z,12.75
2023-04-01T19:21:30.365Z,12.77
2023-04-01T19:24:18.670Z,12.74
2023-04-01T19:26:31.053Z,12.74
2023-04-01T19:28:48.588Z,12.72
2023-04-01T19:30:59.648Z,12.69
2023-04-01T19:33:13.828Z,12.67
2023-04-01T19:35:28.596Z,12.66
2023-04-01T19:37:42.808Z,12.66
2023-04-01T19:39:57.885Z,12.64
2023-04-01T19:42:12.930Z,12.64
2023-04-01T19:44:33.415Z,12.63
2023-04-01T19:46:44.365Z,12.61
2023-04-01T19:49:10.328Z,12.62
2023-04-01T19:51:24.161Z,12.61
2023-04-01T19:53:35.288Z,12.61
2023-04-01T19:55:46.712Z,12.61
2023-04-01T19:57:58.318Z,12.60
2023-04-01T20:00:11.629Z,12.58
2023-04-01T20:02:49.574Z,12.57
2023-04-01T20:04:58.084Z,12.56
2023-04-01T20:07:11.246Z,12.55
2023-04-01T20:09:38.636Z,12.51
2023-04-01T20:11:56.583Z,12.51
2023-04-01T20:14:13.457Z,12.50
2023-04-01T20:16:21.144Z,12.51
2023-04-01T20:18:30.515Z,12.50
2023-04-01T20:20:36.750Z,12.48
2023-04-01T20:23:01.034Z,12.44
2023-04-01T20:25:15.758Z,12.42
2023-04-01T20:27:25.748Z,12.39
2023-04-01T20:29:44.888Z,12.35
2023-04-01T20:32:05.952Z,12.33
2023-04-01T20:34:48.786Z,12.27
2023-04-01T20:37:04.759Z,12.20
2023-04-01T20:39:38.935Z,12.16
2023-04-01T20:41:53.483Z,12.15
2023-04-01T20:44:12.328Z,12.13
2023-04-01T20:46:24.416Z,12.12
2023-04-01T20:49:03.533Z,12.12
2023-04-01T20:51:11.289Z,12.14
2023-04-01T20:53:21.917Z,12.13
2023-04-01T20:56:02.830Z,12.15
2023-04-01T20:58:22.044Z,12.14
2023-04-01T21:00:37.421Z,12.12
2023-04-01T21:03:03.995Z,12.08
2023-04-01T21:05:30.737Z,12.06
2023-04-01T21:07:43.551Z,12.05
2023-04-01T21:10:07.789Z,12.08
2023-04-01T21:12:25.752Z,12.07
2023-04-01T21:14:48.903Z,12.06
2023-04-01T21:17:04.237Z,12.03
2023-04-01T21:19:27.225Z,12.02
2023-04-01T21:22:11.316Z,11.99
2023-04-01T21:24:51.069Z,11.99
2023-04-01T21:27:04.975Z,11.99
2023-04-01T21:29:27.566Z,12.02
2023-04-01T21:31:48.861Z,12.02
2023-04-01T21:34:07.994Z,12.00
2023-04-01T21:36:29.540Z,12.01
2023-04-01T21:39:02.470Z,12.01
2023-04-01T21:41:19.791Z,11.97
2023-04-01T21:43:54.522Z,11.96
2023-04-01T21:46:29.119Z,11.94
2023-04-01T21:48:51.650Z,11.93
2023-04-01T21:51:28.123Z,11.94
2023-04-01T21:54:19.273Z,11.92
2023-04-01T21:56:54.011Z,11.87
2023-04-01T21:59:28.860Z,11.86
2023-04-01T22:01:59.107Z,11.83
2023-04-01T22:04:22.534Z,11.83
2023-04-01T22:06:33.812Z,11.83
2023-04-01T22:09:04.367Z,11.84
2023-04-01T22:11:18.172Z,11.84
2023-04-01T22:13:30.494Z,11.84
2023-04-01T22:15:54.185Z,11.82
2023-04-01T22:18:03.211Z,11.74
2023-04-01T22:20:21.324Z,11.74
2023-04-01T22:22:32.102Z,11.76
2023-04-01T22:24:48.350Z,11.75
2023-04-01T22:27:02.966Z,11.77
2023-04-01T22:29:14.893Z,11.78
2023-04-01T22:31:26.714Z,11.77
2023-04-01T22:33:38.970Z,11.76
2023-04-01T22:35:53.274Z,11.79
2023-04-01T22:38:09.271Z,11.79
2023-04-01T22:40:26.553Z,11.81
2023-04-01T22:42:45.793Z,11.82
2023-04-01T22:45:01.475Z,11.81
2023-04-01T22:47:16.469Z,11.82
2023-04-01T22:49:29.145Z,11.81
2023-04-01T22:51:47.106Z,11.80
2023-04-01T22:54:09.468Z,11.80
2023-04-01T22:56:19.817Z,11.83
2023-04-01T22:58:34.643Z,11.85
2023-04-01T23:00:43.658Z,11.86
2023-04-01T23:02:54.947Z,11.87
2023-04-01T23:05:03.141Z,11.85
2023-04-01T23:07:28.307Z,11.83
2023-04-01T23:09:35.266Z,11.81
2023-04-01T23:11:47.507Z,11.83
2023-04-01T23:13:58.230Z,11.82
2023-04-01T23:16:03.829Z,11.84
2023-04-01T23:18:24.775Z,11.81
2023-04-01T23:20:43.780Z,11.79
2023-04-01T23:23:00.664Z,11.80
2023-04-01T23:25:21.081Z,11.82
2023-04-01T23:27:32.255Z,11.85
2023-04-01T23:29:43.978Z,11.84
2023-04-01T23:31:50.099Z,11.85
2023-04-01T23:33:58.085Z,11.85
2023-04-01T23:36:08.735Z,11.87
2023-04-01T23:38:13.697Z,11.88
2023-04-01T23:40:18.962Z,11.88
2023-04-01T23:42:27.455Z,11.86
2023-04-01T23:44:33.527Z,11.85
2023-04-01T23:46:43.544Z,11.81
2023-04-01T23:48:50.395Z,11.82
2023-04-01T23:50:55.672Z,11.81
2023-04-01T23:53:03.735Z,11.76
2023-04-01T23:55:18.153Z,11.72
2023-04-01T23:57:26.781Z,11.71
2023-04-01T23:59:34.056Z,11.66
